createdAt,value
2019-01-03T00:00:55.217Z,102836.97
2019-01-03T00:02:03.195Z,102838.89
2019-01-03T00:03:17.413Z,102843.84
2019-01-03T00:04:34.890Z,102836.69
2019-01-03T00:05:52.243Z,102830.91
2019-01-03T00:07:13.441Z,102832.00
2019-01-03T00:08:24.335Z,102829.25
2019-01-03T00:09:29.559Z,102833.92
2019-01-03T00:10:34.698Z,102837.77
2019-01-03T00:11:55.974Z,102841.05
2019-01-03T00:13:16.015Z,102840.22
2019-01-03T00:14:33.089Z,102828.95
2019-01-03T00:15:46.973Z,102827.84
2019-01-03T00:16:52.108Z,102834.72
2019-01-03T00:18:09.426Z,102827.02
2019-01-03T00:19:14.602Z,102835.20
2019-01-03T00:20:22.544Z,102828.34
2019-01-03T00:21:27.806Z,102825.86
2019-01-03T00:22:35.365Z,102825.05
2019-01-03T00:23:49.624Z,102819.81
2019-01-03T00:25:10.425Z,102821.19
2019-01-03T00:26:24.452Z,102822.00
2019-01-03T00:27:45.303Z,102822.83
2019-01-03T00:29:06.513Z,102824.46
2019-01-03T00:30:11.986Z,102827.21
2019-01-03T00:31:29.101Z,102823.90
2019-01-03T00:32:36.910Z,102826.65
2019-01-03T00:33:45.017Z,102829.39
2019-01-03T00:35:05.938Z,102828.28
2019-01-03T00:36:20.020Z,102821.96
2019-01-03T00:37:34.086Z,102827.17
2019-01-03T00:38:41.643Z,102828.00
2019-01-03T00:39:46.873Z,102824.14
2019-01-03T00:41:00.933Z,102829.63
2019-01-03T00:42:11.765Z,102834.58
2019-01-03T00:43:22.705Z,102829.89
2019-01-03T00:44:43.757Z,102830.45
2019-01-03T00:45:54.902Z,102830.45
2019-01-03T00:47:17.865Z,102827.38
2019-01-03T00:48:22.995Z,102824.07
2019-01-03T00:49:28.141Z,102822.70
2019-01-03T00:50:45.296Z,102824.07
2019-01-03T00:51:59.474Z,102826.25
2019-01-03T00:53:07.646Z,102826.25
2019-01-03T00:54:18.352Z,102828.72
2019-01-03T00:55:38.398Z,102832.55
2019-01-03T00:56:43.621Z,102832.55
2019-01-03T00:57:54.662Z,102836.65
2019-01-03T00:59:02.541Z,102841.05
2019-01-03T01:00:24.975Z,102839.39
2019-01-03T01:01:32.927Z,102838.55
2019-01-03T01:02:38.156Z,102846.52
2019-01-03T01:03:59.501Z,102844.58
2019-01-03T01:05:07.447Z,102850.90
2019-01-03T01:06:29.160Z,102843.20
2019-01-03T01:07:43.368Z,102840.67
2019-01-03T01:09:04.593Z,102850.88
2019-01-03T01:10:26.109Z,102857.20
2019-01-03T01:11:47.192Z,102852.48
2019-01-03T01:13:04.383Z,102856.88
2019-01-03T01:14:09.603Z,102864.01
2019-01-03T01:15:23.613Z,102867.02
2019-01-03T01:16:28.852Z,102872.79
2019-01-03T01:17:39.786Z,102870.59
2019-01-03T01:19:01.232Z,102879.08
2019-01-03T01:20:08.052Z,102866.73
2019-01-03T01:21:29.276Z,102871.68
2019-01-03T01:22:37.394Z,102868.36
2019-01-03T01:23:45.363Z,102870.30
2019-01-03T01:25:02.122Z,102868.64
2019-01-03T01:26:07.313Z,102865.88
2019-01-03T01:27:14.856Z,102869.45
2019-01-03T01:28:32.206Z,102875.23
2019-01-03T01:29:37.426Z,102862.59
2019-01-03T01:30:51.336Z,102864.50
2019-01-03T01:31:56.518Z,102866.42
2019-01-03T01:33:07.473Z,102861.97
2019-01-03T01:34:15.403Z,102873.83
2019-01-03T01:35:32.223Z,102867.23
2019-01-03T01:36:40.249Z,102866.94
2019-01-03T01:37:47.940Z,102865.83
2019-01-03T01:38:53.092Z,102866.66
2019-01-03T01:40:00.681Z,102872.44
2019-01-03T01:41:08.647Z,102858.97
2019-01-03T01:42:25.353Z,102858.68
2019-01-03T01:43:30.469Z,102856.77
2019-01-03T01:44:35.630Z,102858.94
2019-01-03T01:45:43.463Z,102870.20
2019-01-03T01:46:54.474Z,102868.00
2019-01-03T01:48:08.202Z,102861.38
2019-01-03T01:49:29.621Z,102878.67
2019-01-03T01:50:50.740Z,102895.69
2019-01-03T01:51:55.905Z,102908.58
2019-01-03T01:53:01.044Z,102915.45
2019-01-03T01:54:09.084Z,102915.70
2019-01-03T01:55:20.123Z,102913.24
2019-01-03T01:56:34.135Z,102914.61
2019-01-03T01:57:45.111Z,102914.61
2019-01-03T01:59:05.284Z,102920.36
2019-01-03T02:00:10.675Z,102921.48
2019-01-03T02:01:15.821Z,102923.14
2019-01-03T02:02:21.032Z,102922.84
2019-01-03T02:03:28.869Z,102914.33
2019-01-03T02:04:33.994Z,102918.73
2019-01-03T02:05:39.124Z,102912.95
2019-01-03T02:06:44.301Z,102914.33
2019-01-03T02:07:55.395Z,102918.45
2019-01-03T02:09:18.150Z,102910.75
2019-01-03T02:10:29.045Z,102914.05
2019-01-03T02:11:36.923Z,102917.87
2019-01-03T02:12:45.003Z,102920.08
2019-01-03T02:13:53.205Z,102920.33
2019-01-03T02:15:03.872Z,102917.56
2019-01-03T02:16:09.069Z,102910.16
2019-01-03T02:17:14.220Z,102909.61
2019-01-03T02:18:22.116Z,102911.53
2019-01-03T02:19:38.948Z,102910.16
2019-01-03T02:20:49.731Z,102918.11
2019-01-03T02:21:57.358Z,102913.98
2019-01-03T02:23:02.494Z,102914.53
2019-01-03T02:24:19.306Z,102914.53
2019-01-03T02:25:24.554Z,102907.92
2019-01-03T02:26:38.616Z,102906.55
2019-01-03T02:27:46.360Z,102905.73
2019-01-03T02:28:51.504Z,102902.98
2019-01-03T02:30:12.621Z,102903.24
2019-01-03T02:31:35.656Z,102903.24
2019-01-03T02:32:43.463Z,102900.50
2019-01-03T02:33:54.593Z,102898.01
2019-01-03T02:35:14.728Z,102900.20
2019-01-03T02:36:36.091Z,102894.72
2019-01-03T02:37:41.242Z,102894.72
2019-01-03T02:38:49.069Z,102891.66
2019-01-03T02:39:54.219Z,102899.06
2019-01-03T02:41:17.020Z,102891.66
2019-01-03T02:42:24.852Z,102896.31
2019-01-03T02:43:41.773Z,102891.91
2019-01-03T02:44:52.633Z,102896.26
2019-01-03T02:46:13.877Z,102898.72
2019-01-03T02:47:24.672Z,102895.69
2019-01-03T02:48:44.936Z,102892.94
2019-01-03T02:49:50.095Z,102889.91
2019-01-03T02:50:55.272Z,102883.34
2019-01-03T02:52:00.449Z,102887.71
2019-01-03T02:53:08.313Z,102887.97
2019-01-03T02:54:29.207Z,102884.40
2019-01-03T02:55:37.556Z,102883.31
2019-01-03T02:57:00.221Z,102881.11
2019-01-03T02:58:07.956Z,102888.25
2019-01-03T02:59:29.378Z,102882.77
2019-01-03T03:00:34.511Z,102873.99
2019-01-03T03:01:48.413Z,102870.42
2019-01-03T03:03:05.240Z,102869.62
2019-01-03T03:04:10.381Z,102866.59
2019-01-03T03:05:24.199Z,102866.87
2019-01-03T03:06:35.220Z,102865.22
2019-01-03T03:07:43.184Z,102867.13
2019-01-03T03:08:48.344Z,102861.36
2019-01-03T03:09:59.284Z,102857.78
2019-01-03T03:11:20.464Z,102858.33
2019-01-03T03:12:34.905Z,102853.36
2019-01-03T03:13:51.754Z,102854.19
2019-01-03T03:15:02.884Z,102849.23
2019-01-03T03:16:13.988Z,102844.02
2019-01-03T03:17:33.788Z,102842.55
2019-01-03T03:18:38.964Z,102849.21
2019-01-03T03:19:50.174Z,102848.61
2019-01-03T03:21:04.048Z,102843.13
2019-01-03T03:22:12.163Z,102846.13
2019-01-03T03:23:29.350Z,102846.67
2019-01-03T03:24:46.588Z,102845.02
2019-01-03T03:25:51.723Z,102843.35
2019-01-03T03:27:02.470Z,102839.78
2019-01-03T03:28:23.789Z,102840.87
2019-01-03T03:29:40.430Z,102839.20
2019-01-03T03:31:01.571Z,102832.89
2019-01-03T03:32:22.685Z,102823.27
2019-01-03T03:33:27.875Z,102832.33
2019-01-03T03:34:33.081Z,102836.44
2019-01-03T03:35:47.095Z,102830.95
2019-01-03T03:37:09.995Z,102833.41
2019-01-03T03:38:23.904Z,102828.47
2019-01-03T03:39:31.766Z,102824.89
2019-01-03T03:40:39.151Z,102826.27
2019-01-03T03:41:44.054Z,102824.89
2019-01-03T03:42:54.866Z,102827.92
2019-01-03T03:44:00.007Z,102830.37
2019-01-03T03:45:22.783Z,102838.61
2019-01-03T03:46:46.153Z,102831.75
2019-01-03T03:48:07.089Z,102838.06
2019-01-03T03:49:27.226Z,102838.61
2019-01-03T03:50:38.078Z,102841.06
2019-01-03T03:51:48.934Z,102839.38
2019-01-03T03:52:54.226Z,102843.81
2019-01-03T03:54:05.186Z,102843.81
2019-01-03T03:55:13.455Z,102844.03
2019-01-03T03:56:36.201Z,102851.72
2019-01-03T03:57:44.318Z,102846.78
2019-01-03T03:59:05.658Z,102843.46
2019-01-03T04:00:28.781Z,102846.78
2019-01-03T04:01:48.766Z,102841.83
2019-01-03T04:03:03.117Z,102843.49
2019-01-03T04:04:08.282Z,102829.77
2019-01-03T04:05:31.493Z,102834.50
2019-01-03T04:06:52.423Z,102829.58
2019-01-03T04:08:03.631Z,102830.44
2019-01-03T04:09:11.882Z,102827.17
2019-01-03T04:10:19.964Z,102826.66
2019-01-03T04:11:40.893Z,102826.45
2019-01-03T04:12:46.022Z,102832.28
2019-01-03T04:13:56.986Z,102828.31
2019-01-03T04:15:04.577Z,102826.72
2019-01-03T04:16:09.745Z,102830.97
2019-01-03T04:17:17.587Z,102827.42
2019-01-03T04:18:34.645Z,102833.03
2019-01-03T04:19:55.613Z,102831.20
2019-01-03T04:21:18.349Z,102830.77
2019-01-03T04:22:29.227Z,102828.69
2019-01-03T04:23:46.259Z,102828.18
2019-01-03T04:25:06.067Z,102827.45
2019-01-03T04:26:27.394Z,102826.19
2019-01-03T04:27:47.156Z,102827.39
2019-01-03T04:29:07.995Z,102823.05
2019-01-03T04:30:19.195Z,102819.23
2019-01-03T04:31:40.672Z,102828.09
2019-01-03T04:32:51.835Z,102827.30
2019-01-03T04:33:57.057Z,102824.83
2019-01-03T04:35:20.387Z,102824.57
2019-01-03T04:36:25.519Z,102822.65
2019-01-03T04:37:33.968Z,102821.08
2019-01-03T04:38:41.854Z,102830.14
2019-01-03T04:40:05.251Z,102824.10
2019-01-03T04:41:26.138Z,102819.43
2019-01-03T04:42:47.205Z,102815.86
2019-01-03T04:43:58.296Z,102813.97
2019-01-03T04:45:14.901Z,102820.58
2019-01-03T04:46:35.675Z,102818.67
2019-01-03T04:47:52.934Z,102819.22
2019-01-03T04:49:00.723Z,102812.34
2019-01-03T04:50:09.375Z,102815.09
2019-01-03T04:51:14.531Z,102814.27
2019-01-03T04:52:37.668Z,102816.19
2019-01-03T04:53:45.663Z,102806.56
2019-01-03T04:54:50.885Z,102812.61
2019-01-03T04:55:58.713Z,102817.56
2019-01-03T04:57:03.933Z,102815.64
2019-01-03T04:58:23.904Z,102806.02
2019-01-03T04:59:31.567Z,102811.51
2019-01-03T05:00:52.494Z,102809.58
2019-01-03T05:02:12.462Z,102810.13
2019-01-03T05:03:20.298Z,102813.44
2019-01-03T05:04:25.417Z,102809.57
2019-01-03T05:05:33.328Z,102809.84
2019-01-03T05:06:53.210Z,102811.23
2019-01-03T05:08:14.293Z,102815.37
2019-01-03T05:09:19.465Z,102816.73
2019-01-03T05:10:40.560Z,102818.39
2019-01-03T05:11:45.690Z,102824.98
2019-01-03T05:13:02.466Z,102819.77
2019-01-03T05:14:23.879Z,102824.44
2019-01-03T05:15:44.926Z,102824.43
2019-01-03T05:16:56.053Z,102821.36
2019-01-03T05:18:17.364Z,102819.98
2019-01-03T05:19:22.506Z,102820.80
2019-01-03T05:20:30.068Z,102816.92
2019-01-03T05:21:49.838Z,102819.68
2019-01-03T05:23:11.177Z,102819.40
2019-01-03T05:24:16.334Z,102816.37
2019-01-03T05:25:21.475Z,102815.56
2019-01-03T05:26:32.206Z,102818.86
2019-01-03T05:27:37.351Z,102817.50
2019-01-03T05:28:42.512Z,102821.89
2019-01-03T05:29:47.638Z,102823.81
2019-01-03T05:31:07.722Z,102818.30
2019-01-03T05:32:18.313Z,102820.23
2019-01-03T05:33:26.170Z,102821.88
2019-01-03T05:34:47.283Z,102819.66
2019-01-03T05:35:52.373Z,102815.25
2019-01-03T05:37:00.403Z,102812.46
2019-01-03T05:38:14.199Z,102812.45
2019-01-03T05:39:19.334Z,102811.34
2019-01-03T05:40:36.427Z,102808.30
2019-01-03T05:41:59.171Z,102808.30
2019-01-03T05:43:19.396Z,102809.94
2019-01-03T05:44:40.590Z,102804.45
2019-01-03T05:45:48.297Z,102804.72
2019-01-03T05:46:53.448Z,102804.45
2019-01-03T05:47:58.587Z,102810.23
2019-01-03T05:49:18.794Z,102807.76
2019-01-03T05:50:39.987Z,102805.55
2019-01-03T05:52:03.147Z,102803.91
2019-01-03T05:53:14.286Z,102811.88
2019-01-03T05:54:22.008Z,102807.19
2019-01-03T05:55:43.093Z,102805.22
2019-01-03T05:56:54.435Z,102815.94
2019-01-03T05:58:02.369Z,102809.60
2019-01-03T05:59:10.123Z,102814.55
2019-01-03T06:00:31.454Z,102816.75
2019-01-03T06:01:36.670Z,102815.10
2019-01-03T06:02:50.379Z,102814.27
2019-01-03T06:03:55.593Z,102818.14
2019-01-03T06:05:00.707Z,102814.89
2019-01-03T06:06:06.007Z,102819.02
2019-01-03T06:07:11.158Z,102825.64
2019-01-03T06:08:28.211Z,102820.44
2019-01-03T06:09:33.390Z,102819.62
2019-01-03T06:10:50.531Z,102822.37
2019-01-03T06:11:55.697Z,102828.19
2019-01-03T06:13:03.259Z,102827.91
2019-01-03T06:14:14.366Z,102823.51
2019-01-03T06:15:19.615Z,102819.34
2019-01-03T06:16:30.357Z,102821.81
2019-01-03T06:17:38.200Z,102825.40
2019-01-03T06:19:01.494Z,102827.86
2019-01-03T06:20:23.754Z,102829.23
2019-01-03T06:21:46.523Z,102825.94
2019-01-03T06:23:03.651Z,102826.48
2019-01-03T06:24:08.837Z,102833.69
2019-01-03T06:25:30.170Z,102823.80
2019-01-03T06:26:43.860Z,102827.67
2019-01-03T06:27:49.013Z,102831.53
2019-01-03T06:28:54.236Z,102830.75
2019-01-03T06:29:59.364Z,102826.34
2019-01-03T06:31:19.625Z,102829.09
2019-01-03T06:32:40.741Z,102829.66
2019-01-03T06:33:48.623Z,102822.22
2019-01-03T06:35:09.971Z,102827.69
2019-01-03T06:36:15.095Z,102828.78
2019-01-03T06:37:36.455Z,102826.56
2019-01-03T06:38:41.668Z,102823.80
2019-01-03T06:40:03.135Z,102821.05
2019-01-03T06:41:11.078Z,102824.06
2019-01-03T06:42:16.243Z,102825.44
2019-01-03T06:43:39.469Z,102826.27
2019-01-03T06:44:50.220Z,102827.38
2019-01-03T06:46:00.941Z,102836.74
2019-01-03T06:47:17.955Z,102835.64
2019-01-03T06:48:35.055Z,102832.89
2019-01-03T06:49:42.793Z,102838.95
2019-01-03T06:51:03.791Z,102835.38
2019-01-03T06:52:11.383Z,102830.70
2019-01-03T06:53:32.566Z,102834.55
2019-01-03T06:54:37.736Z,102833.17
2019-01-03T06:55:57.740Z,102833.99
2019-01-03T06:57:18.956Z,102835.36
2019-01-03T06:58:38.850Z,102835.89
2019-01-03T06:59:50.063Z,102834.51
2019-01-03T07:01:04.499Z,102835.88
2019-01-03T07:02:12.693Z,102838.59
2019-01-03T07:03:29.278Z,102836.11
2019-01-03T07:04:37.094Z,102837.77
2019-01-03T07:05:45.063Z,102843.82
2019-01-03T07:07:06.476Z,102842.72
2019-01-03T07:08:20.307Z,102847.71
2019-01-03T07:09:41.403Z,102843.27
2019-01-03T07:11:02.962Z,102841.07
2019-01-03T07:12:22.931Z,102843.82
2019-01-03T07:13:36.903Z,102843.27
2019-01-03T07:14:59.838Z,102839.42
2019-01-03T07:16:16.795Z,102839.69
2019-01-03T07:17:21.975Z,102834.72
2019-01-03T07:18:43.023Z,102836.09
2019-01-03T07:19:48.198Z,102836.09
2019-01-03T07:20:59.499Z,102831.68
2019-01-03T07:22:04.770Z,102838.01
2019-01-03T07:23:15.897Z,102838.82
2019-01-03T07:24:35.517Z,102838.55
2019-01-03T07:25:43.468Z,102843.22
2019-01-03T07:26:48.609Z,102839.87
2019-01-03T07:28:05.497Z,102834.91
2019-01-03T07:29:10.778Z,102841.50
2019-01-03T07:30:18.664Z,102836.53
2019-01-03T07:31:23.808Z,102840.92
2019-01-03T07:32:34.372Z,102842.56
2019-01-03T07:33:39.519Z,102841.13
2019-01-03T07:34:47.320Z,102844.41
2019-01-03T07:36:01.274Z,102843.32
2019-01-03T07:37:15.096Z,102847.41
2019-01-03T07:38:23.133Z,102848.79
2019-01-03T07:39:43.510Z,102853.44
2019-01-03T07:40:54.074Z,102854.50
2019-01-03T07:42:08.056Z,102850.64
2019-01-03T07:43:16.169Z,102851.97
2019-01-03T07:44:37.478Z,102851.41
2019-01-03T07:45:54.518Z,102849.20
2019-01-03T07:47:15.703Z,102850.84
2019-01-03T07:48:36.883Z,102853.03
2019-01-03T07:49:44.823Z,102856.59
2019-01-03T07:50:58.856Z,102854.37
2019-01-03T07:52:19.995Z,102855.46
2019-01-03T07:53:41.218Z,102862.28
2019-01-03T07:54:46.349Z,102866.66
2019-01-03T07:55:51.520Z,102867.73
2019-01-03T07:56:56.659Z,102872.38
2019-01-03T07:58:17.676Z,102864.97
2019-01-03T07:59:25.525Z,102877.05
2019-01-03T08:00:30.681Z,102875.39
2019-01-03T08:01:35.891Z,102876.20
2019-01-03T08:02:44.073Z,102876.20
2019-01-03T08:03:49.220Z,102878.13
2019-01-03T08:04:59.977Z,102881.70
2019-01-03T08:06:21.209Z,102885.77
2019-01-03T08:07:31.850Z,102876.41
2019-01-03T08:08:39.452Z,102873.66
2019-01-03T08:09:44.585Z,102875.04
2019-01-03T08:10:52.614Z,102870.92
2019-01-03T08:12:03.640Z,102873.13
2019-01-03T08:13:14.800Z,102871.80
2019-01-03T08:14:34.461Z,102874.28
2019-01-03T08:15:42.158Z,102872.62
2019-01-03T08:16:55.881Z,102877.58
2019-01-03T08:18:03.601Z,102878.13
2019-01-03T08:19:24.523Z,102883.87
2019-01-03T08:20:29.653Z,102888.00
2019-01-03T08:21:41.013Z,102888.77
2019-01-03T08:22:49.118Z,102889.58
2019-01-03T08:23:56.670Z,102890.67
2019-01-03T08:25:04.483Z,102880.20
2019-01-03T08:26:12.448Z,102882.67
2019-01-03T08:27:32.498Z,102886.53
2019-01-03T08:28:40.759Z,102879.92
2019-01-03T08:29:46.039Z,102885.70
2019-01-03T08:30:51.347Z,102883.22
2019-01-03T08:31:56.618Z,102879.62
2019-01-03T08:33:10.724Z,102879.07
2019-01-03T08:34:15.877Z,102872.70
2019-01-03T08:35:26.670Z,102881.53
2019-01-03T08:36:34.623Z,102879.88
2019-01-03T08:37:55.735Z,102874.93
2019-01-03T08:39:13.111Z,102881.20
2019-01-03T08:40:34.292Z,102878.43
2019-01-03T08:41:39.530Z,102880.61
2019-01-03T08:42:59.844Z,102883.07
2019-01-03T08:44:07.446Z,102882.50
2019-01-03T08:45:28.508Z,102886.91
2019-01-03T08:46:42.529Z,102886.36
2019-01-03T08:47:47.708Z,102883.61
2019-01-03T08:49:00.562Z,102883.35
2019-01-03T08:50:23.111Z,102886.69
2019-01-03T08:51:46.399Z,102886.69
2019-01-03T08:53:03.678Z,102886.20
2019-01-03T08:54:25.262Z,102890.61
2019-01-03T08:55:46.138Z,102896.97
2019-01-03T08:57:07.327Z,102898.11
2019-01-03T08:58:27.351Z,102893.49
2019-01-03T08:59:32.586Z,102889.67
2019-01-03T09:00:49.735Z,102893.27
2019-01-03T09:01:54.941Z,102897.70
2019-01-03T09:03:15.999Z,102900.53
2019-01-03T09:04:33.219Z,102896.98
2019-01-03T09:05:47.141Z,102895.91
2019-01-03T09:07:01.194Z,102893.18
2019-01-03T09:08:09.496Z,102893.18
2019-01-03T09:09:17.450Z,102892.63
2019-01-03T09:10:38.475Z,102897.30
2019-01-03T09:11:43.631Z,102897.02
2019-01-03T09:12:51.238Z,102900.17
2019-01-03T09:14:12.549Z,102904.30
2019-01-03T09:15:32.919Z,102905.07
2019-01-03T09:16:43.532Z,102900.89
2019-01-03T09:17:54.682Z,102898.69
2019-01-03T09:19:00.029Z,102901.70
2019-01-03T09:20:14.688Z,102900.31
2019-01-03T09:21:31.757Z,102900.03
2019-01-03T09:22:39.535Z,102902.21
2019-01-03T09:23:47.500Z,102904.41
2019-01-03T09:25:08.395Z,102904.96
2019-01-03T09:26:29.518Z,102905.51
2019-01-03T09:27:49.398Z,102905.20
2019-01-03T09:29:10.349Z,102901.63
2019-01-03T09:30:18.062Z,102907.94
2019-01-03T09:31:25.956Z,102904.05
2019-01-03T09:32:31.095Z,102908.70
2019-01-03T09:33:51.157Z,102906.22
2019-01-03T09:35:02.169Z,102911.44
2019-01-03T09:36:13.210Z,102915.27
2019-01-03T09:37:18.331Z,102917.45
2019-01-03T09:38:23.473Z,102914.42
2019-01-03T09:39:34.489Z,102916.89
2019-01-03T09:40:54.297Z,102914.12
2019-01-03T09:42:15.536Z,102911.63
2019-01-03T09:43:20.745Z,102906.91
2019-01-03T09:44:28.768Z,102921.73
2019-01-03T09:45:43.813Z,102913.50
2019-01-03T09:46:38.879Z,102909.09
2019-01-03T09:47:42.452Z,102913.50
2019-01-03T09:48:45.951Z,102914.09
2019-01-03T09:49:49.453Z,102908.60
2019-01-03T09:50:53.047Z,102919.88
2019-01-03T09:51:56.568Z,102908.64
2019-01-03T09:53:00.116Z,102916.89
2019-01-03T09:54:03.677Z,102915.52
2019-01-03T09:55:07.316Z,102920.16
2019-01-03T09:56:10.842Z,102916.84
2019-01-03T09:57:14.349Z,102920.96
2019-01-03T09:58:17.935Z,102922.34
2019-01-03T09:59:21.502Z,102921.73
2019-01-03T10:00:25.157Z,102923.64
2019-01-03T10:01:28.760Z,102917.84
2019-01-03T10:02:32.264Z,102921.10
2019-01-03T10:03:36.786Z,102917.19
2019-01-03T10:04:40.345Z,102916.59
2019-01-03T10:05:43.926Z,102916.00
2019-01-03T10:06:47.555Z,102910.42
2019-01-03T10:07:51.033Z,102911.20
2019-01-03T10:08:54.634Z,102915.55
2019-01-03T10:09:58.120Z,102908.64
2019-01-03T10:11:01.610Z,102907.47
2019-01-03T10:12:05.280Z,102905.49
2019-01-03T10:13:08.789Z,102912.05
2019-01-03T10:14:12.284Z,102906.75
2019-01-03T10:15:15.817Z,102909.98
2019-01-03T10:16:19.390Z,102908.84
2019-01-03T10:17:22.907Z,102906.61
2019-01-03T10:18:26.407Z,102909.86
2019-01-03T10:19:29.965Z,102912.00
2019-01-03T10:20:33.462Z,102902.91
2019-01-03T10:21:36.970Z,102906.71
2019-01-03T10:22:40.572Z,102903.94
2019-01-03T10:23:44.215Z,102903.08
2019-01-03T10:24:47.721Z,102904.70
2019-01-03T10:25:51.298Z,102896.41
2019-01-03T10:26:54.820Z,102897.75
2019-01-03T10:27:58.341Z,102902.66
2019-01-03T10:29:01.860Z,102898.52
2019-01-03T10:30:06.721Z,102900.97
2019-01-03T10:31:11.367Z,102898.73
2019-01-03T10:32:14.984Z,102892.65
2019-01-03T10:33:18.512Z,102897.56
2019-01-03T10:34:22.014Z,102898.64
2019-01-03T10:35:25.576Z,102895.84
2019-01-03T10:36:29.090Z,102896.95
2019-01-03T10:37:32.581Z,102903.77
2019-01-03T10:38:36.113Z,102899.08
2019-01-03T10:39:39.609Z,102893.86
2019-01-03T10:40:43.110Z,102894.11
2019-01-03T10:41:46.619Z,102888.30
2019-01-03T10:42:50.112Z,102885.27
2019-01-03T10:43:53.716Z,102883.87
2019-01-03T10:44:57.302Z,102882.50
2019-01-03T10:46:00.869Z,102878.09
2019-01-03T10:47:04.488Z,102875.61
2019-01-03T10:48:08.293Z,102871.21
2019-01-03T10:49:11.906Z,102862.70
2019-01-03T10:50:15.464Z,102869.27
2019-01-03T10:51:19.028Z,102867.06
2019-01-03T10:52:22.540Z,102866.78
2019-01-03T10:53:26.139Z,102862.92
2019-01-03T10:54:29.700Z,102865.12
2019-01-03T10:55:33.192Z,102866.74
2019-01-03T10:56:36.754Z,102862.85
2019-01-03T10:57:40.245Z,102869.16
2019-01-03T10:58:43.739Z,102860.66
2019-01-03T10:59:47.492Z,102862.28
2019-01-03T11:00:51.140Z,102863.65
2019-01-03T11:01:54.649Z,102869.38
2019-01-03T11:02:58.299Z,102864.73
2019-01-03T11:04:01.890Z,102872.12
2019-01-03T11:05:05.773Z,102865.52
2019-01-03T11:06:09.387Z,102861.13
2019-01-03T11:07:13.073Z,102862.78
2019-01-03T11:08:16.650Z,102861.41
2019-01-03T11:09:20.263Z,102858.95
2019-01-03T11:10:23.782Z,102852.43
2019-01-03T11:11:27.309Z,102857.44
2019-01-03T11:12:30.823Z,102857.79
2019-01-03T11:13:34.340Z,102857.86
2019-01-03T11:14:37.847Z,102857.95
2019-01-03T11:15:41.368Z,102858.30
2019-01-03T11:16:44.938Z,102858.08
2019-01-03T11:17:48.515Z,102859.80
2019-01-03T11:18:52.019Z,102854.92
2019-01-03T11:19:55.587Z,102856.06
2019-01-03T11:20:59.111Z,102858.84
2019-01-03T11:22:02.747Z,102856.44
2019-01-03T11:23:06.251Z,102853.73
2019-01-03T11:24:09.753Z,102857.59
2019-01-03T11:25:13.270Z,102857.88
2019-01-03T11:26:16.892Z,102860.36
2019-01-03T11:27:20.393Z,102854.84
2019-01-03T11:28:23.894Z,102857.64
2019-01-03T11:29:27.396Z,102855.73
2019-01-03T11:30:30.964Z,102857.44
2019-01-03T11:31:34.624Z,102857.13
2019-01-03T11:32:38.172Z,102854.16
2019-01-03T11:33:41.705Z,102845.38
2019-01-03T11:34:45.681Z,102850.33
2019-01-03T11:35:49.255Z,102847.30
2019-01-03T11:36:52.781Z,102840.66
2019-01-03T11:37:56.374Z,102843.72
2019-01-03T11:38:59.864Z,102837.09
2019-01-03T11:40:04.605Z,102839.83
2019-01-03T11:41:08.186Z,102840.66
2019-01-03T11:42:11.697Z,102839.29
2019-01-03T11:43:15.204Z,102831.86
2019-01-03T11:44:18.682Z,102840.66
2019-01-03T11:45:22.245Z,102829.95
2019-01-03T11:46:25.823Z,102834.89
2019-01-03T11:47:29.387Z,102825.55
2019-01-03T11:48:32.923Z,102830.48
2019-01-03T11:49:36.461Z,102829.12
2019-01-03T11:50:40.220Z,102829.92
2019-01-03T11:51:43.936Z,102818.71
2019-01-03T11:52:47.453Z,102822.06
2019-01-03T11:53:50.995Z,102821.54
2019-01-03T11:54:54.500Z,102827.59
2019-01-03T11:55:58.066Z,102824.59
2019-01-03T11:57:01.573Z,102819.42
2019-01-03T11:58:05.099Z,102823.91
2019-01-03T11:59:08.730Z,102821.21
2019-01-03T12:00:12.377Z,102827.03
2019-01-03T12:01:16.174Z,102827.94
2019-01-03T12:02:25.426Z,102823.84
2019-01-03T12:03:25.401Z,102828.59
2019-01-03T12:04:29.031Z,102827.91
2019-01-03T12:05:33.051Z,102832.66
2019-01-03T12:06:36.887Z,102825.03
2019-01-03T12:07:40.441Z,102824.05
2019-01-03T12:08:44.071Z,102819.47
2019-01-03T12:09:47.531Z,102825.83
2019-01-03T12:10:51.177Z,102820.45
2019-01-03T12:11:54.687Z,102824.91
2019-01-03T12:12:58.169Z,102813.42
2019-01-03T12:14:01.876Z,102814.00
2019-01-03T12:15:08.190Z,102813.19
2019-01-03T12:16:11.689Z,102814.09
2019-01-03T12:17:15.180Z,102812.43
2019-01-03T12:18:18.687Z,102808.86
2019-01-03T12:19:22.219Z,102807.50
2019-01-03T12:20:25.738Z,102813.55
2019-01-03T12:21:29.231Z,102813.57
2019-01-03T12:22:32.904Z,102816.37
2019-01-03T12:23:36.436Z,102814.17
2019-01-03T12:24:39.925Z,102808.97
2019-01-03T12:25:43.550Z,102815.63
2019-01-03T12:26:47.181Z,102809.25
2019-01-03T12:27:50.671Z,102811.99
2019-01-03T12:28:54.329Z,102805.11
2019-01-03T12:29:57.896Z,102812.27
2019-01-03T12:31:01.466Z,102805.37
2019-01-03T12:32:05.145Z,102811.14
2019-01-03T12:33:08.724Z,102813.57
2019-01-03T12:34:12.616Z,102813.57
2019-01-03T12:35:16.119Z,102808.34
2019-01-03T12:36:19.771Z,102812.73
2019-01-03T12:37:23.432Z,102819.31
2019-01-03T12:38:26.981Z,102819.57
2019-01-03T12:39:30.750Z,102820.67
2019-01-03T12:40:34.420Z,102823.97
2019-01-03T12:41:37.929Z,102819.02
2019-01-03T12:42:41.483Z,102820.89
2019-01-03T12:43:44.962Z,102823.69
2019-01-03T12:44:48.543Z,102816.81
2019-01-03T12:45:52.048Z,102817.65
2019-01-03T12:46:55.619Z,102820.68
2019-01-03T12:47:59.180Z,102820.99
2019-01-03T12:49:02.771Z,102819.67
2019-01-03T12:50:09.382Z,102818.05
2019-01-03T12:51:12.951Z,102818.32
2019-01-03T12:52:16.429Z,102820.84
2019-01-03T12:53:19.995Z,102819.20
2019-01-03T12:54:23.516Z,102810.13
2019-01-03T12:55:27.097Z,102810.13
2019-01-03T12:56:30.685Z,102808.22
2019-01-03T12:57:34.281Z,102811.23
2019-01-03T12:58:37.817Z,102805.73
2019-01-03T12:59:41.508Z,102804.08
2019-01-03T13:00:45.159Z,102802.97
2019-01-03T13:01:48.789Z,102799.39
2019-01-03T13:02:52.435Z,102791.09
2019-01-03T13:03:55.917Z,102787.52
2019-01-03T13:04:59.530Z,102786.95
2019-01-03T13:06:03.186Z,102794.66
2019-01-03T13:07:06.812Z,102799.89
2019-01-03T13:08:10.407Z,102789.71
2019-01-03T13:09:17.874Z,102783.67
2019-01-03T13:10:21.440Z,102789.44
2019-01-03T13:11:25.138Z,102799.36
2019-01-03T13:12:28.675Z,102793.61
2019-01-03T13:13:32.262Z,102798.30
2019-01-03T13:14:35.785Z,102791.97
2019-01-03T13:15:39.333Z,102798.30
2019-01-03T13:16:43.094Z,102803.23
2019-01-03T13:17:46.628Z,102802.69
2019-01-03T13:18:50.268Z,102810.08